KMMT/MMT METAR and TAF weather

Enter ICAO airport designator
Station Type Date Time Source
KMMT METAR 2020/08/14 01:16 UTC NOAA

KMMT 140116Z 16006KT 10SM BKN005 OVC100 23/23 A2999 RMK AO2A SLPNO $


Station Type Date Time Source
KMMT Decoded METAR 2020/08/14 01:16 UTC NOAA

McEntire Air National Guard Weather Facility Base, SC, United States (KMMT) 33-55N 080-48W
Aug 13, 2020 - 09:16 PM EDT / 2020.08.14 0116 UTC
Wind: from the SSE (160 degrees) at 7 MPH (6 KT):0
Visibility: 10 mile(s):0
Sky conditions: overcast
Temperature: 73 F (23 C)
Dew Point: 73 F (23 C)
Relative Humidity: 100%
Pressure (altimeter): 29.99 in. Hg (1015 hPa)
ob: KMMT 140116Z 16006KT 10SM BKN005 OVC100 23/23 A2999 RMK AO2A SLPNO
cycle: 1

Station Type Date Time Source
KMMT TAF 2020/08/13 23:06 UTC NOAA

TAF TAF KMMT 132300Z 1323/1505 08004KT 9999 SCT003 BKN060 BKN140 BKN250 QNH2993INS
BECMG 1401/1402 VRB03KT 8000 BR SCT025 BKN150 QNH2999INS
BECMG 1408/1409 05002KT 3200 BR BKN004 QNH2996INS
BECMG 1412/1413 06003KT 9999 NSW SCT010 BKN030 QNH2999INS
BECMG 1417/1418 16008KT 9999 VCTS SCT050CB QNH2995INS
TEMPO 1418/1423 20012G20KT 6000 -TSRA SCT010 BKN030CB BKN100
BECMG 1500/1501 18004KT 9999 NSW SCT010 BKN020 QNH2993INS TX33/1417Z TN22/1409Z

Example: see airport list